Strona główna
METAR-TAF:

METAR-TAF

Lotnisko :

Pottstown Limerick Airport

Pottstown, Pensylwania, Stany Zjednoczone

Szerokość geograficzna: 40-14-18N, Długość geograficzna: 075-33-26W, wysokość: 89 m

Aktualna obserwacja pogody

Raport powstał 1 godzina i 9 minut temu, godzina 07:54 UTC
Wiatr 6 kt z kierunków zmiennych w porywach dochodzący do 17 kt
Temperatura 4°C
Wilgotność 75%
Ciśnienie 1004 hPa
Widzialność: 16.1 km
Zachmurzenie całkowite na wysokości 3800 ft

METAR: KPTW 150754Z AUTO VRB06G17KT 10SM OVC038 04/00 A2964 RMK AO2 SLP036 T00440000 $

czas: 04:03 (09:03 UTC)


TAF: brakujący

Obserwacja i prognoza pogody dla ponad 4000 lotnisk (raport METAR i TAF).

Dostępne stacje oznaczono żółtymi i czerwonymi punktami na mapie.

Najedź kursorem aby zobaczyć nazwę stacji.

Kliknij aby zobaczyć obserwacje i prognozy pogody.

Aby zmienić mapę: kliknij na zielony przycisk z czarnym krzyżykiem, aby powiększyć; na zielony przycisk z myślnikiem, aby pomniejszyć; na zielone strzałki, aby przejść do map sąsiednich.


METAR-TAF: